createdAt,value
2018-07-16T00:00:29.303Z,17.26
2018-07-16T00:01:29.232Z,17.23
2018-07-16T00:02:29.161Z,17.26
2018-07-16T00:03:29.088Z,17.13
2018-07-16T00:04:29.019Z,17.23
2018-07-16T00:05:28.946Z,17.20
2018-07-16T00:06:28.881Z,17.30
2018-07-16T00:07:28.802Z,17.35
2018-07-16T00:08:28.734Z,17.43
2018-07-16T00:09:28.660Z,17.38
2018-07-16T00:10:28.588Z,17.38
2018-07-16T00:11:28.518Z,17.35
2018-07-16T00:12:28.446Z,17.29
2018-07-16T00:13:28.374Z,17.23
2018-07-16T00:14:28.304Z,17.23
2018-07-16T00:15:28.231Z,17.21
2018-07-16T00:16:28.160Z,17.21
2018-07-16T00:17:28.089Z,17.23
2018-07-16T00:18:28.017Z,17.23
2018-07-16T00:19:27.947Z,17.17
2018-07-16T00:20:27.874Z,17.13
2018-07-16T00:21:27.804Z,17.08
2018-07-16T00:22:27.731Z,16.98
2018-07-16T00:23:27.663Z,17.03
2018-07-16T00:24:27.587Z,17.11
2018-07-16T00:25:27.516Z,17.05
2018-07-16T00:26:27.445Z,16.98
2018-07-16T00:27:27.374Z,17.08
2018-07-16T00:28:27.302Z,17.13
2018-07-16T00:29:27.230Z,17.13
2018-07-16T00:30:27.159Z,17.07
2018-07-16T00:31:27.088Z,16.96
2018-07-16T00:32:27.017Z,17.00
2018-07-16T00:33:26.945Z,16.98
2018-07-16T00:34:26.873Z,17.02
2018-07-16T00:35:26.802Z,16.99
2018-07-16T00:36:26.731Z,16.99
2018-07-16T00:37:26.657Z,16.95
2018-07-16T00:38:26.586Z,17.02
2018-07-16T00:39:26.515Z,16.96
2018-07-16T00:40:26.442Z,16.99
2018-07-16T00:41:26.372Z,16.92
2018-07-16T00:42:26.300Z,16.93
2018-07-16T00:43:26.228Z,16.90
2018-07-16T00:44:26.165Z,16.93
2018-07-16T00:45:26.086Z,16.92
2018-07-16T00:46:26.015Z,16.84
2018-07-16T00:47:25.944Z,16.81
2018-07-16T00:48:25.870Z,16.89
2018-07-16T00:49:25.802Z,16.93
2018-07-16T00:50:25.727Z,16.90
2018-07-16T00:51:25.656Z,16.89
2018-07-16T00:52:25.585Z,16.92
2018-07-16T00:53:25.513Z,16.85
2018-07-16T00:54:25.443Z,16.85
2018-07-16T00:55:25.369Z,16.85
2018-07-16T00:56:25.304Z,16.84
2018-07-16T00:57:25.226Z,16.85
2018-07-16T00:58:25.156Z,16.84
2018-07-16T00:59:25.090Z,16.84
2018-07-16T01:00:25.013Z,16.80
2018-07-16T01:01:24.940Z,16.89
2018-07-16T01:02:24.868Z,16.77
2018-07-16T01:03:24.798Z,16.74
2018-07-16T01:04:24.728Z,16.81
2018-07-16T01:05:24.657Z,16.85
2018-07-16T01:06:24.587Z,16.90
2018-07-16T01:07:24.511Z,16.80
2018-07-16T01:08:24.439Z,16.78
2018-07-16T01:09:24.367Z,16.77
2018-07-16T01:10:24.297Z,16.67
2018-07-16T01:11:27.258Z,16.67
2018-07-16T01:12:24.152Z,16.67
2018-07-16T01:13:24.082Z,16.65
2018-07-16T01:14:24.009Z,16.70
2018-07-16T01:15:23.939Z,16.71
2018-07-16T01:16:23.867Z,16.65
2018-07-16T01:17:23.795Z,16.66
2018-07-16T01:18:23.724Z,16.74
2018-07-16T01:19:23.652Z,16.73
2018-07-16T01:20:23.582Z,16.74
2018-07-16T01:21:23.510Z,16.80
2018-07-16T01:22:23.437Z,16.74
2018-07-16T01:23:23.365Z,16.67
2018-07-16T01:24:23.292Z,16.70
2018-07-16T01:25:23.222Z,16.73
2018-07-16T01:26:23.150Z,16.60
2018-07-16T01:27:23.080Z,16.67
2018-07-16T01:28:23.006Z,16.63
2018-07-16T01:29:22.936Z,16.62
2018-07-16T01:30:22.864Z,16.63
2018-07-16T01:31:22.793Z,16.66
2018-07-16T01:32:22.720Z,16.67
2018-07-16T01:33:22.648Z,16.71
2018-07-16T01:34:22.580Z,16.65
2018-07-16T01:35:22.508Z,16.67
2018-07-16T01:36:22.434Z,16.60
2018-07-16T01:37:22.362Z,16.63
2018-07-16T01:38:22.290Z,16.63
2018-07-16T01:39:22.219Z,16.67
2018-07-16T01:40:22.147Z,16.60
2018-07-16T01:41:22.075Z,16.66
2018-07-16T01:42:22.004Z,16.60
2018-07-16T01:43:21.932Z,16.66
2018-07-16T01:44:21.861Z,16.57
2018-07-16T01:45:21.789Z,16.55
2018-07-16T01:46:21.719Z,16.56
2018-07-16T01:47:21.646Z,16.59
2018-07-16T01:48:21.576Z,16.56
2018-07-16T01:49:21.503Z,16.45
2018-07-16T01:50:21.430Z,16.57
2018-07-16T01:51:21.359Z,16.53
2018-07-16T01:52:21.287Z,16.57
2018-07-16T01:53:21.216Z,16.60
2018-07-16T01:54:21.144Z,16.50
2018-07-16T01:55:21.073Z,16.48
2018-07-16T01:56:20.999Z,16.52
2018-07-16T01:57:20.930Z,16.42
2018-07-16T01:58:20.857Z,16.48
2018-07-16T01:59:20.786Z,16.48
2018-07-16T02:00:20.868Z,16.45
2018-07-16T02:01:20.640Z,16.53
2018-07-16T02:02:20.572Z,16.41
2018-07-16T02:03:20.502Z,16.45
2018-07-16T02:04:20.425Z,16.48
2018-07-16T02:05:20.354Z,16.45
2018-07-16T02:06:20.283Z,16.48
2018-07-16T02:07:20.211Z,16.47
2018-07-16T02:08:20.138Z,16.35
2018-07-16T02:09:20.068Z,16.52
2018-07-16T02:10:19.995Z,16.42
2018-07-16T02:11:19.924Z,16.34
2018-07-16T02:12:19.850Z,16.35
2018-07-16T02:13:19.780Z,16.34
2018-07-16T02:14:19.709Z,16.38
2018-07-16T02:15:19.636Z,16.50
2018-07-16T02:16:19.565Z,16.47
2018-07-16T02:17:19.492Z,16.47
2018-07-16T02:18:19.421Z,16.41
2018-07-16T02:19:19.349Z,16.33
2018-07-16T02:20:19.277Z,16.37
2018-07-16T02:21:19.206Z,16.30
2018-07-16T02:22:19.132Z,16.29
2018-07-16T02:23:19.062Z,16.30
2018-07-16T02:24:18.991Z,16.34
2018-07-16T02:25:18.917Z,16.34
2018-07-16T02:26:18.846Z,16.35
2018-07-16T02:27:18.775Z,16.33
2018-07-16T02:28:18.702Z,16.30
2018-07-16T02:29:18.632Z,16.35
2018-07-16T02:30:18.558Z,16.27
2018-07-16T02:31:18.489Z,16.30
2018-07-16T02:32:18.414Z,16.35
2018-07-16T02:33:18.345Z,16.35
2018-07-16T02:34:18.272Z,16.35
2018-07-16T02:35:18.199Z,16.34
2018-07-16T02:36:18.128Z,16.34
2018-07-16T02:37:18.056Z,16.29
2018-07-16T02:38:17.984Z,16.37
2018-07-16T02:39:17.913Z,16.25
2018-07-16T02:40:17.842Z,16.14
2018-07-16T02:41:17.768Z,16.07
2018-07-16T02:42:17.697Z,16.08
2018-07-16T02:43:17.625Z,16.14
2018-07-16T02:44:17.553Z,16.12
2018-07-16T02:45:17.481Z,16.27
2018-07-16T02:46:17.417Z,16.15
2018-07-16T02:47:17.338Z,16.07
2018-07-16T02:48:17.265Z,16.12
2018-07-16T02:49:17.193Z,16.06
2018-07-16T02:50:17.121Z,16.04
2018-07-16T02:51:17.050Z,16.07
2018-07-16T02:52:16.978Z,16.06
2018-07-16T02:53:16.905Z,16.10
2018-07-16T02:54:16.848Z,16.07
2018-07-16T02:55:16.762Z,16.06
2018-07-16T02:56:16.697Z,15.99
2018-07-16T02:57:16.617Z,16.08
2018-07-16T02:58:16.545Z,16.06
2018-07-16T02:59:16.474Z,16.06
2018-07-16T03:00:16.401Z,16.03
2018-07-16T03:01:16.330Z,16.01
2018-07-16T03:02:16.257Z,15.96
2018-07-16T03:03:16.185Z,15.96
2018-07-16T03:04:16.114Z,16.01
2018-07-16T03:05:16.041Z,15.97
2018-07-16T03:06:15.968Z,16.01
2018-07-16T03:07:15.899Z,15.83
2018-07-16T03:08:15.825Z,15.96
2018-07-16T03:09:15.756Z,15.89
2018-07-16T03:10:15.688Z,15.97
2018-07-16T03:11:15.608Z,15.89
2018-07-16T03:12:15.536Z,15.86
2018-07-16T03:13:15.469Z,15.96
2018-07-16T03:14:15.393Z,16.00
2018-07-16T03:15:15.319Z,16.06
2018-07-16T03:16:15.248Z,15.97
2018-07-16T03:17:15.176Z,15.97
2018-07-16T03:18:15.116Z,15.97
2018-07-16T03:19:15.032Z,16.06
2018-07-16T03:20:14.960Z,16.03
2018-07-16T03:21:14.886Z,16.07
2018-07-16T03:22:14.815Z,16.06
2018-07-16T03:23:14.745Z,16.01
2018-07-16T03:24:14.670Z,16.04
2018-07-16T03:25:14.599Z,15.99
2018-07-16T03:26:14.531Z,16.00
2018-07-16T03:27:14.455Z,16.01
2018-07-16T03:28:14.386Z,16.10
2018-07-16T03:29:14.310Z,16.12
2018-07-16T03:30:14.239Z,16.14
2018-07-16T03:31:14.170Z,16.10
2018-07-16T03:32:14.094Z,16.20
2018-07-16T03:33:14.021Z,16.12
2018-07-16T03:34:13.949Z,16.16
2018-07-16T03:35:13.878Z,16.15
2018-07-16T03:36:13.803Z,16.14
2018-07-16T03:37:13.731Z,16.20
2018-07-16T03:38:13.660Z,16.20
2018-07-16T03:39:13.591Z,16.15
2018-07-16T03:40:13.516Z,16.15
2018-07-16T03:41:13.443Z,16.23
2018-07-16T03:42:13.372Z,16.20
2018-07-16T03:43:13.300Z,16.18
2018-07-16T03:44:13.227Z,16.29
2018-07-16T03:45:13.157Z,16.26
2018-07-16T03:46:13.084Z,16.30
2018-07-16T03:47:13.012Z,16.40
2018-07-16T03:48:12.938Z,16.35
2018-07-16T03:49:12.866Z,16.25
2018-07-16T03:50:12.797Z,16.23
2018-07-16T03:51:12.722Z,16.29
2018-07-16T03:52:12.653Z,16.33
2018-07-16T03:53:12.578Z,16.30
2018-07-16T03:54:12.506Z,16.34
2018-07-16T03:55:12.434Z,16.30
2018-07-16T03:56:12.362Z,16.33
2018-07-16T03:57:12.289Z,16.34
2018-07-16T03:58:12.219Z,16.30
2018-07-16T03:59:12.148Z,16.34
2018-07-16T04:00:12.074Z,16.30
2018-07-16T04:01:12.002Z,16.37
2018-07-16T04:02:11.933Z,16.33
2018-07-16T04:03:11.859Z,16.30
2018-07-16T04:04:11.785Z,16.33
2018-07-16T04:05:11.714Z,16.34
2018-07-16T04:06:11.643Z,16.30
2018-07-16T04:07:11.570Z,16.27
2018-07-16T04:08:11.498Z,16.34
2018-07-16T04:09:11.426Z,16.26
2018-07-16T04:10:11.356Z,16.33
2018-07-16T04:11:11.283Z,16.35
2018-07-16T04:12:11.209Z,16.30
2018-07-16T04:13:11.137Z,16.33
2018-07-16T04:14:11.065Z,16.35
2018-07-16T04:15:10.998Z,16.33
2018-07-16T04:16:10.923Z,16.33
2018-07-16T04:17:10.851Z,16.30
2018-07-16T04:18:10.781Z,16.22
2018-07-16T04:19:10.706Z,16.25
2018-07-16T04:20:10.634Z,16.27
2018-07-16T04:21:10.563Z,16.34
2018-07-16T04:22:10.491Z,16.27
2018-07-16T04:23:10.418Z,16.29
2018-07-16T04:24:10.346Z,16.34
2018-07-16T04:25:10.275Z,16.29
2018-07-16T04:26:10.202Z,16.33
2018-07-16T04:27:10.131Z,16.27
2018-07-16T04:28:10.058Z,16.33
2018-07-16T04:29:09.990Z,16.29
2018-07-16T04:30:09.918Z,16.29
2018-07-16T04:31:09.843Z,16.29
2018-07-16T04:32:09.770Z,16.37
2018-07-16T04:33:09.698Z,16.50
2018-07-16T04:34:09.626Z,16.42
2018-07-16T04:35:09.558Z,16.57
2018-07-16T04:36:09.482Z,16.52
2018-07-16T04:37:09.411Z,16.57
2018-07-16T04:38:09.339Z,16.59
2018-07-16T04:39:09.266Z,16.59
2018-07-16T04:40:09.195Z,16.59
2018-07-16T04:41:09.130Z,16.59
2018-07-16T04:42:09.050Z,16.62
2018-07-16T04:43:08.980Z,16.67
2018-07-16T04:44:08.907Z,16.75
2018-07-16T04:45:08.835Z,16.67
2018-07-16T04:46:08.766Z,16.74
2018-07-16T04:47:08.691Z,16.80
2018-07-16T04:48:08.622Z,16.80
2018-07-16T04:49:08.551Z,16.78
2018-07-16T04:50:08.478Z,16.81
2018-07-16T04:51:08.406Z,16.82
2018-07-16T04:52:08.333Z,16.81
2018-07-16T04:53:08.261Z,16.85
2018-07-16T04:54:08.189Z,16.85
2018-07-16T04:55:08.118Z,16.90
2018-07-16T04:56:08.055Z,16.96
2018-07-16T04:57:07.975Z,17.00
2018-07-16T04:58:07.903Z,16.92
2018-07-16T04:59:07.831Z,17.02
2018-07-16T05:00:07.762Z,17.07
2018-07-16T05:01:07.689Z,17.07
2018-07-16T05:02:07.616Z,17.08
2018-07-16T05:03:07.554Z,17.08
2018-07-16T05:04:07.472Z,17.11
2018-07-16T05:05:07.402Z,17.20
2018-07-16T05:06:07.334Z,17.23
2018-07-16T05:07:07.259Z,17.20
2018-07-16T05:08:07.191Z,17.20
2018-07-16T05:09:07.119Z,17.25
2018-07-16T05:10:07.048Z,17.29
2018-07-16T05:11:06.974Z,17.32
2018-07-16T05:12:06.903Z,17.46
2018-07-16T05:13:06.831Z,17.43
2018-07-16T05:14:06.760Z,17.53
2018-07-16T05:15:07.039Z,17.54
2018-07-16T05:16:06.618Z,17.51
2018-07-16T05:17:06.546Z,17.55
2018-07-16T05:18:06.580Z,17.53
2018-07-16T05:19:06.404Z,17.57
2018-07-16T05:20:06.332Z,17.66
2018-07-16T05:21:06.262Z,17.66
2018-07-16T05:22:06.191Z,17.70
2018-07-16T05:23:06.120Z,17.71
2018-07-16T05:24:06.142Z,17.69
2018-07-16T05:25:05.977Z,17.81
2018-07-16T05:26:05.906Z,17.81
2018-07-16T05:27:05.835Z,17.84
2018-07-16T05:28:05.764Z,17.91
2018-07-16T05:29:05.693Z,17.76
2018-07-16T05:30:05.623Z,17.84
2018-07-16T05:31:05.552Z,17.82
2018-07-16T05:32:05.615Z,17.94
2018-07-16T05:33:05.409Z,17.91
2018-07-16T05:34:05.343Z,17.94
2018-07-16T05:35:05.268Z,17.98
2018-07-16T05:36:05.197Z,18.03
2018-07-16T05:37:05.126Z,18.03
2018-07-16T05:38:05.099Z,17.96
2018-07-16T05:39:04.985Z,18.03
2018-07-16T05:40:04.916Z,18.07
2018-07-16T05:41:04.842Z,18.16
2018-07-16T05:42:04.772Z,18.19
2018-07-16T05:43:04.701Z,18.24
2018-07-16T05:44:04.631Z,18.21
2018-07-16T05:45:04.561Z,18.21
2018-07-16T05:46:04.490Z,18.32
2018-07-16T05:47:04.419Z,18.39
2018-07-16T05:48:04.349Z,18.40
2018-07-16T05:49:04.278Z,18.40
2018-07-16T05:50:04.208Z,18.42
2018-07-16T05:51:04.140Z,18.46
2018-07-16T05:52:04.066Z,18.49
2018-07-16T05:53:03.999Z,18.50
2018-07-16T05:54:03.929Z,18.49
2018-07-16T05:55:03.854Z,18.49
2018-07-16T05:56:03.793Z,18.59
2018-07-16T05:57:03.713Z,18.65
2018-07-16T05:58:03.643Z,18.74
2018-07-16T05:59:03.578Z,18.67
2018-07-16T06:00:03.504Z,18.74
2018-07-16T06:01:03.437Z,18.71
2018-07-16T06:02:03.362Z,18.71
2018-07-16T06:03:03.292Z,18.71
2018-07-16T06:04:03.220Z,18.73
2018-07-16T06:05:03.150Z,18.73
2018-07-16T06:06:03.081Z,18.82
2018-07-16T06:07:03.011Z,18.77
2018-07-16T06:08:02.939Z,18.89
2018-07-16T06:09:02.869Z,18.92
2018-07-16T06:10:02.799Z,18.98
2018-07-16T06:11:02.880Z,18.98
2018-07-16T06:12:02.658Z,19.01
2018-07-16T06:13:02.589Z,18.92
2018-07-16T06:14:02.519Z,19.11
2018-07-16T06:15:02.458Z,19.11
2018-07-16T06:16:02.378Z,19.13
2018-07-16T06:17:02.309Z,19.25
2018-07-16T06:18:02.239Z,19.36
2018-07-16T06:19:02.169Z,19.36
2018-07-16T06:20:02.098Z,19.39
2018-07-16T06:21:02.033Z,19.50
2018-07-16T06:22:01.958Z,19.55
2018-07-16T06:23:01.889Z,19.58
2018-07-16T06:24:01.836Z,19.57
2018-07-16T06:25:01.748Z,19.75
2018-07-16T06:26:01.679Z,19.76
2018-07-16T06:27:01.609Z,19.90
2018-07-16T06:28:01.540Z,19.98
2018-07-16T06:29:01.471Z,20.10
2018-07-16T06:30:01.400Z,20.16
2018-07-16T06:31:01.331Z,20.19
2018-07-16T06:32:01.260Z,20.26
2018-07-16T06:33:01.192Z,20.19
2018-07-16T06:34:01.120Z,20.28
2018-07-16T06:35:01.054Z,20.12
2018-07-16T06:36:00.982Z,20.09
2018-07-16T06:37:00.911Z,20.13
2018-07-16T06:38:00.843Z,20.13
2018-07-16T06:39:00.773Z,20.18
2018-07-16T06:40:00.733Z,20.23
2018-07-16T06:41:00.918Z,20.28
2018-07-16T06:42:00.564Z,20.30
2018-07-16T06:43:00.496Z,20.34
2018-07-16T06:44:00.428Z,20.37
2018-07-16T06:45:00.357Z,20.47
2018-07-16T06:46:00.286Z,20.40
2018-07-16T06:47:00.222Z,20.47
2018-07-16T06:48:00.148Z,20.40
2018-07-16T06:49:00.079Z,20.51
2018-07-16T06:50:00.010Z,20.46
2018-07-16T06:50:59.941Z,20.56
2018-07-16T06:51:59.870Z,20.54
2018-07-16T06:52:59.801Z,20.59
2018-07-16T06:53:59.731Z,20.69
2018-07-16T06:54:59.694Z,20.75
2018-07-16T06:55:59.592Z,20.79
2018-07-16T06:56:59.524Z,20.89
2018-07-16T06:57:59.456Z,20.98
2018-07-16T06:58:59.387Z,20.98
2018-07-16T06:59:59.317Z,20.99
2018-07-16T07:00:59.248Z,20.98
2018-07-16T07:01:59.179Z,20.91
2018-07-16T07:02:59.112Z,21.09
2018-07-16T07:03:59.041Z,21.21
2018-07-16T07:04:58.972Z,21.21
2018-07-16T07:05:58.904Z,21.23
2018-07-16T07:06:58.838Z,21.29
2018-07-16T07:07:58.776Z,21.27
2018-07-16T07:08:58.700Z,21.39
2018-07-16T07:09:58.692Z,21.36
2018-07-16T07:10:58.559Z,21.39
2018-07-16T07:11:58.490Z,21.29
2018-07-16T07:12:58.422Z,21.36
2018-07-16T07:13:58.354Z,21.36
2018-07-16T07:14:58.284Z,21.41
2018-07-16T07:15:58.217Z,21.45
2018-07-16T07:16:58.145Z,21.54
2018-07-16T07:17:58.078Z,21.61
2018-07-16T07:18:58.010Z,21.78
2018-07-16T07:19:57.941Z,21.91
2018-07-16T07:20:57.872Z,21.91
2018-07-16T07:21:57.805Z,21.91
2018-07-16T07:22:57.736Z,21.78
2018-07-16T07:23:57.666Z,21.74
2018-07-16T07:24:57.603Z,21.91
2018-07-16T07:25:57.531Z,21.85
2018-07-16T07:26:57.463Z,21.85
2018-07-16T07:27:57.393Z,21.95
2018-07-16T07:28:57.330Z,22.07
2018-07-16T07:29:57.257Z,22.19
2018-07-16T07:30:57.190Z,22.30
2018-07-16T07:31:57.120Z,22.30
2018-07-16T07:32:57.053Z,22.38
2018-07-16T07:33:56.984Z,22.46
2018-07-16T07:34:56.972Z,22.46
2018-07-16T07:35:56.941Z,22.52
2018-07-16T07:36:56.781Z,22.62
2018-07-16T07:37:56.713Z,22.69
2018-07-16T07:38:56.645Z,22.83
2018-07-16T07:39:56.576Z,22.74
2018-07-16T07:40:56.509Z,22.83
2018-07-16T07:41:56.441Z,22.93
2018-07-16T07:42:56.373Z,22.81
2018-07-16T07:43:56.305Z,22.94
2018-07-16T07:44:56.236Z,22.92
2018-07-16T07:45:56.170Z,23.04
2018-07-16T07:46:56.102Z,23.14
2018-07-16T07:47:56.034Z,23.29
2018-07-16T07:48:55.965Z,23.31
2018-07-16T07:49:55.900Z,23.26
2018-07-16T07:50:55.832Z,23.12
2018-07-16T07:51:55.763Z,23.15
2018-07-16T07:52:55.694Z,23.11
2018-07-16T07:53:55.628Z,23.20
2018-07-16T07:54:56.067Z,23.23
2018-07-16T07:55:55.492Z,23.22
2018-07-16T07:56:55.425Z,23.26
2018-07-16T07:57:55.357Z,23.37
2018-07-16T07:58:55.290Z,23.40
2018-07-16T07:59:55.222Z,23.61
2018-07-16T08:00:55.156Z,23.63
2018-07-16T08:01:55.088Z,23.68
2018-07-16T08:02:55.021Z,23.67
2018-07-16T08:03:54.953Z,23.74
2018-07-16T08:04:54.885Z,23.60
2018-07-16T08:05:54.819Z,23.52
2018-07-16T08:06:54.754Z,23.48
2018-07-16T08:07:54.683Z,23.45
2018-07-16T08:08:54.617Z,23.43
2018-07-16T08:09:54.549Z,23.27
2018-07-16T08:10:54.483Z,23.35
2018-07-16T08:11:54.416Z,23.46
2018-07-16T08:12:54.347Z,23.58
2018-07-16T08:13:54.371Z,23.64
2018-07-16T08:14:54.213Z,23.64
2018-07-16T08:15:54.147Z,23.53
2018-07-16T08:16:54.080Z,23.46
2018-07-16T08:17:54.013Z,23.50
2018-07-16T08:18:53.943Z,23.40
2018-07-16T08:19:53.875Z,23.46
2018-07-16T08:20:53.856Z,23.55
2018-07-16T08:21:53.743Z,23.65
2018-07-16T08:22:53.677Z,23.49
2018-07-16T08:23:53.607Z,23.56
2018-07-16T08:24:53.539Z,23.52
2018-07-16T08:25:53.470Z,23.63
2018-07-16T08:26:53.404Z,23.60
2018-07-16T08:27:53.336Z,23.58
2018-07-16T08:28:53.267Z,23.55
2018-07-16T08:29:53.201Z,23.55
2018-07-16T08:30:53.133Z,23.60
2018-07-16T08:31:53.066Z,23.64
2018-07-16T08:32:52.998Z,23.37
2018-07-16T08:33:52.930Z,23.18
2018-07-16T08:34:52.864Z,23.14
2018-07-16T08:35:52.796Z,23.09
2018-07-16T08:36:52.729Z,23.23
2018-07-16T08:37:52.661Z,23.22
2018-07-16T08:38:52.593Z,23.15
2018-07-16T08:39:52.525Z,23.22
2018-07-16T08:40:52.456Z,23.29
2018-07-16T08:41:52.390Z,23.20
2018-07-16T08:42:52.323Z,23.40
2018-07-16T08:43:52.252Z,23.53
2018-07-16T08:44:52.186Z,23.70
2018-07-16T08:45:52.119Z,23.80
2018-07-16T08:46:52.052Z,23.87
2018-07-16T08:47:51.983Z,24.01
2018-07-16T08:48:51.916Z,24.02
2018-07-16T08:49:51.847Z,23.98
2018-07-16T08:50:51.780Z,23.83
2018-07-16T08:51:51.712Z,23.82
2018-07-16T08:52:51.704Z,23.82
2018-07-16T08:53:51.577Z,23.72
2018-07-16T08:54:51.513Z,23.79
2018-07-16T08:55:51.442Z,23.80
2018-07-16T08:56:51.378Z,23.83
2018-07-16T08:57:51.306Z,23.85
2018-07-16T08:58:51.238Z,23.98
2018-07-16T08:59:51.170Z,24.04
2018-07-16T09:00:51.103Z,24.30
2018-07-16T09:01:51.035Z,24.30
2018-07-16T09:02:50.969Z,24.20
2018-07-16T09:03:50.899Z,24.20
2018-07-16T09:04:50.833Z,24.19
2018-07-16T09:05:50.766Z,24.25
2018-07-16T09:06:50.700Z,24.29
2018-07-16T09:07:50.631Z,24.23
2018-07-16T09:08:50.565Z,24.29
2018-07-16T09:09:50.496Z,24.29
2018-07-16T09:10:50.435Z,24.38
2018-07-16T09:11:50.367Z,24.30
2018-07-16T09:12:50.294Z,24.48
2018-07-16T09:13:50.230Z,24.48
2018-07-16T09:14:50.160Z,24.60
2018-07-16T09:15:50.092Z,24.56
2018-07-16T09:16:50.036Z,24.62
2018-07-16T09:17:49.958Z,24.62
2018-07-16T09:18:49.892Z,24.66
2018-07-16T09:19:49.823Z,24.64
2018-07-16T09:20:49.763Z,24.44
2018-07-16T09:21:49.691Z,24.41
2018-07-16T09:22:49.624Z,24.35
2018-07-16T09:23:49.557Z,24.45
2018-07-16T09:24:49.492Z,24.44
2018-07-16T09:25:49.425Z,24.56
2018-07-16T09:26:49.358Z,24.59
2018-07-16T09:27:49.291Z,24.76
2018-07-16T09:28:49.225Z,24.79
2018-07-16T09:29:49.159Z,24.90
2018-07-16T09:30:49.095Z,24.80
2018-07-16T09:31:49.025Z,24.79
2018-07-16T09:32:49.099Z,25.02
2018-07-16T09:33:48.892Z,25.12
2018-07-16T09:34:48.828Z,25.08
2018-07-16T09:35:48.760Z,24.97
2018-07-16T09:36:48.695Z,24.91
2018-07-16T09:37:48.631Z,24.88
2018-07-16T09:38:48.563Z,25.01
2018-07-16T09:39:48.496Z,24.93
2018-07-16T09:40:48.430Z,24.78
2018-07-16T09:41:48.363Z,24.75
2018-07-16T09:42:48.297Z,24.75
2018-07-16T09:43:48.233Z,24.90
2018-07-16T09:44:48.165Z,24.79
2018-07-16T09:45:48.097Z,24.69
2018-07-16T09:46:48.034Z,24.59
2018-07-16T09:47:47.966Z,24.53
2018-07-16T09:48:47.899Z,24.50
2018-07-16T09:49:47.833Z,24.54
2018-07-16T09:50:47.766Z,24.56
2018-07-16T09:51:47.699Z,24.78
2018-07-16T09:52:47.632Z,24.83
2018-07-16T09:53:47.564Z,25.10
2018-07-16T09:54:47.499Z,25.10
2018-07-16T09:55:47.433Z,25.19
2018-07-16T09:56:47.366Z,25.22
2018-07-16T09:57:47.299Z,25.16
2018-07-16T09:58:47.232Z,25.20
2018-07-16T09:59:47.165Z,25.20
2018-07-16T10:00:47.098Z,25.25
2018-07-16T10:01:47.032Z,25.28
2018-07-16T10:02:46.965Z,25.30
2018-07-16T10:03:46.897Z,25.34
2018-07-16T10:04:46.832Z,25.30
2018-07-16T10:05:46.764Z,25.31
2018-07-16T10:06:46.696Z,25.34
2018-07-16T10:07:46.629Z,25.38
2018-07-16T10:08:46.566Z,25.53
2018-07-16T10:09:46.496Z,25.40
2018-07-16T10:10:46.431Z,25.38
2018-07-16T10:11:46.362Z,25.30
2018-07-16T10:12:46.297Z,25.40
2018-07-16T10:13:46.229Z,25.47
2018-07-16T10:14:46.164Z,25.42
2018-07-16T10:15:46.097Z,25.45
2018-07-16T10:16:46.029Z,25.55
2018-07-16T10:17:45.966Z,25.45
2018-07-16T10:18:45.897Z,25.55
2018-07-16T10:19:45.830Z,25.60
2018-07-16T10:20:45.768Z,25.55
2018-07-16T10:21:45.696Z,25.59
2018-07-16T10:22:45.629Z,25.79
2018-07-16T10:23:45.570Z,26.02
2018-07-16T10:24:45.496Z,26.01
2018-07-16T10:25:45.435Z,26.08
2018-07-16T10:26:45.364Z,26.12
2018-07-16T10:27:45.296Z,26.08
2018-07-16T10:28:45.230Z,26.12
2018-07-16T10:29:45.167Z,26.23
2018-07-16T10:30:45.097Z,26.16
2018-07-16T10:31:45.031Z,26.12
2018-07-16T10:32:44.963Z,26.07
2018-07-16T10:33:44.964Z,25.92
2018-07-16T10:34:44.831Z,25.74
2018-07-16T10:35:44.764Z,25.56
2018-07-16T10:36:44.696Z,25.75
2018-07-16T10:37:44.633Z,25.78
2018-07-16T10:38:44.565Z,25.84
2018-07-16T10:39:44.497Z,25.83
2018-07-16T10:40:44.432Z,25.94
2018-07-16T10:41:44.365Z,25.92
2018-07-16T10:42:44.302Z,25.94
2018-07-16T10:43:44.231Z,25.89
2018-07-16T10:44:44.165Z,25.84
2018-07-16T10:45:44.098Z,25.96
2018-07-16T10:46:44.032Z,25.83
2018-07-16T10:47:43.964Z,25.84
2018-07-16T10:48:43.899Z,25.92
2018-07-16T10:49:43.903Z,25.99
2018-07-16T10:50:43.769Z,26.12
2018-07-16T10:51:43.699Z,26.11
2018-07-16T10:52:43.633Z,26.07
2018-07-16T10:53:43.566Z,26.08
2018-07-16T10:54:43.498Z,26.23
2018-07-16T10:55:43.432Z,26.28
2018-07-16T10:56:43.365Z,26.32
2018-07-16T10:57:43.300Z,26.24
2018-07-16T10:58:43.235Z,26.08
2018-07-16T10:59:43.167Z,26.24
2018-07-16T11:00:43.101Z,26.34
2018-07-16T11:01:43.034Z,26.42
2018-07-16T11:02:42.969Z,26.46
2018-07-16T11:03:42.904Z,26.62
2018-07-16T11:04:42.834Z,26.76
2018-07-16T11:05:42.779Z,26.64
2018-07-16T11:06:42.704Z,26.79
2018-07-16T11:07:42.636Z,26.86
2018-07-16T11:08:42.570Z,26.94
2018-07-16T11:09:42.507Z,27.09
2018-07-16T11:10:42.441Z,27.24
2018-07-16T11:11:42.374Z,27.35
2018-07-16T11:12:42.312Z,27.38
2018-07-16T11:13:42.243Z,27.61
2018-07-16T11:14:42.178Z,27.54
2018-07-16T11:15:42.110Z,27.57
2018-07-16T11:16:42.046Z,27.67
2018-07-16T11:17:41.981Z,27.67
2018-07-16T11:18:41.919Z,27.70
2018-07-16T11:19:41.851Z,27.67
2018-07-16T11:20:41.785Z,27.46
2018-07-16T11:21:41.721Z,27.41
2018-07-16T11:22:41.655Z,27.36
2018-07-16T11:23:41.591Z,27.51
2018-07-16T11:24:41.527Z,27.49
2018-07-16T11:25:41.462Z,27.58
2018-07-16T11:26:41.399Z,27.72
2018-07-16T11:27:41.333Z,27.67
2018-07-16T11:28:41.270Z,27.98
2018-07-16T11:29:41.207Z,27.88
2018-07-16T11:30:41.143Z,27.89
2018-07-16T11:31:41.080Z,27.76
2018-07-16T11:32:41.016Z,27.69
2018-07-16T11:33:40.952Z,27.72
2018-07-16T11:34:40.890Z,27.70
2018-07-16T11:35:40.883Z,27.73
2018-07-16T11:36:40.761Z,27.79
2018-07-16T11:37:40.698Z,27.88
2018-07-16T11:38:40.635Z,27.77
2018-07-16T11:39:40.574Z,27.65
2018-07-16T11:40:40.506Z,27.46
2018-07-16T11:41:40.442Z,27.04
2018-07-16T11:42:40.383Z,26.89
2018-07-16T11:43:40.315Z,26.95
2018-07-16T11:44:40.250Z,27.65
2018-07-16T11:45:40.187Z,28.57
2018-07-16T11:46:40.123Z,29.09
2018-07-16T11:47:40.059Z,29.65
2018-07-16T11:48:39.995Z,30.24
2018-07-16T11:49:39.933Z,30.30
2018-07-16T11:50:39.872Z,29.75
2018-07-16T11:51:39.808Z,29.97
2018-07-16T11:52:39.745Z,30.56
2018-07-16T11:53:39.685Z,31.20
2018-07-16T11:54:39.623Z,31.52
2018-07-16T11:55:39.565Z,31.94
2018-07-16T11:56:39.501Z,31.75
2018-07-16T11:57:39.441Z,31.79
2018-07-16T11:58:39.381Z,31.80
2018-07-16T11:59:39.322Z,31.70
2018-07-16T12:00:39.265Z,31.95
2018-07-16T12:01:39.205Z,32.53
2018-07-16T12:02:39.145Z,32.36
2018-07-16T12:03:39.088Z,32.60
2018-07-16T12:04:39.028Z,32.95
2018-07-16T12:05:38.970Z,33.44
2018-07-16T12:06:38.924Z,33.30
2018-07-16T12:07:38.855Z,32.67
2018-07-16T12:08:38.797Z,32.16
2018-07-16T12:09:38.741Z,31.95
2018-07-16T12:10:38.686Z,31.82
2018-07-16T12:11:38.625Z,31.99
2018-07-16T12:12:38.576Z,32.72
2018-07-16T12:13:38.512Z,32.72
2018-07-16T12:14:38.457Z,32.80
2018-07-16T12:15:38.398Z,32.82
2018-07-16T12:16:38.341Z,32.47
2018-07-16T12:17:38.285Z,32.27
2018-07-16T12:18:38.233Z,31.95
2018-07-16T12:19:38.173Z,32.14
2018-07-16T12:20:38.263Z,32.55
2018-07-16T12:21:38.059Z,32.18
2018-07-16T12:22:38.004Z,32.27
2018-07-16T12:23:37.947Z,32.38
2018-07-16T12:24:37.892Z,32.77
2018-07-16T12:25:37.837Z,33.11
2018-07-16T12:26:37.781Z,33.44
2018-07-16T12:27:37.724Z,33.47
2018-07-16T12:28:37.669Z,33.33
2018-07-16T12:29:37.614Z,33.61
2018-07-16T12:30:37.559Z,34.00
2018-07-16T12:31:37.503Z,34.05
2018-07-16T12:32:37.448Z,34.14
2018-07-16T12:33:37.392Z,33.32
2018-07-16T12:34:37.338Z,33.51
2018-07-16T12:35:37.282Z,33.79
2018-07-16T12:36:37.228Z,34.32
2018-07-16T12:37:37.174Z,34.44
2018-07-16T12:38:37.120Z,34.94
2018-07-16T12:39:37.063Z,34.42
2018-07-16T12:40:37.009Z,33.56
2018-07-16T12:41:36.980Z,33.32
2018-07-16T12:42:36.900Z,33.56
2018-07-16T12:43:36.845Z,32.97
2018-07-16T12:44:36.792Z,32.89
2018-07-16T12:45:36.737Z,32.39
2018-07-16T12:46:36.683Z,32.13
2018-07-16T12:47:36.628Z,32.32
2018-07-16T12:48:36.573Z,32.40
2018-07-16T12:49:36.519Z,32.69
2018-07-16T12:50:36.463Z,32.50
2018-07-16T12:51:36.408Z,32.47